createdAt,value
2022-11-02T00:00:21.081Z,100269.88
2022-11-02T00:01:29.533Z,100265.19
2022-11-02T00:02:33.065Z,100272.36
2022-11-02T00:03:36.611Z,100269.03
2022-11-02T00:04:44.504Z,100275.95
2022-11-02T00:05:48.009Z,100260.36
2022-11-02T00:06:51.407Z,100265.56
2022-11-02T00:07:55.122Z,100267.06
2022-11-02T00:08:57.793Z,100268.51
2022-11-02T00:10:01.518Z,100257.83
2022-11-02T00:11:04.930Z,100253.56
2022-11-02T00:12:08.298Z,100258.27
2022-11-02T00:13:10.443Z,100263.65
2022-11-02T00:14:13.530Z,100262.62
2022-11-02T00:15:21.488Z,100256.56
2022-11-02T00:16:26.065Z,100257.50
2022-11-02T00:17:28.863Z,100250.33
2022-11-02T00:18:34.549Z,100245.97
2022-11-02T00:19:37.859Z,100243.16
2022-11-02T00:20:41.145Z,100233.24
2022-11-02T00:21:45.701Z,100237.51
2022-11-02T00:22:52.957Z,100233.71
2022-11-02T00:23:56.597Z,100237.13
2022-11-02T00:25:04.421Z,100234.30
2022-11-02T00:26:07.897Z,100235.92
2022-11-02T00:27:13.086Z,100239.33
2022-11-02T00:28:17.832Z,100239.50
2022-11-02T00:29:27.797Z,100232.33
2022-11-02T00:30:35.083Z,100233.00
2022-11-02T00:31:38.273Z,100234.70
2022-11-02T00:32:41.610Z,100229.20
2022-11-02T00:33:44.820Z,100235.44
2022-11-02T00:34:49.209Z,100229.77
2022-11-02T00:35:53.512Z,100226.94
2022-11-02T00:36:57.434Z,100233.18
2022-11-02T00:38:03.843Z,100233.36
2022-11-02T00:39:07.201Z,100231.56
2022-11-02T00:40:10.252Z,100223.97
2022-11-02T00:41:12.594Z,100227.21
2022-11-02T00:42:19.584Z,100233.71
2022-11-02T00:43:23.363Z,100223.59
2022-11-02T00:44:26.777Z,100231.62
2022-11-02T00:45:29.446Z,100228.39
2022-11-02T00:46:32.948Z,100224.33
2022-11-02T00:47:36.233Z,100221.00
2022-11-02T00:48:40.797Z,100231.00
2022-11-02T00:49:45.070Z,100218.23
2022-11-02T00:50:51.693Z,100219.17
2022-11-02T00:51:55.488Z,100223.69
2022-11-02T00:52:59.975Z,100220.33
2022-11-02T00:54:03.112Z,100215.21
2022-11-02T00:55:10.600Z,100216.35
2022-11-02T00:56:18.073Z,100207.82
2022-11-02T00:57:21.367Z,100209.70
2022-11-02T00:58:25.394Z,100216.78
2022-11-02T00:59:30.003Z,100210.64
2022-11-02T01:00:33.388Z,100209.98
2022-11-02T01:01:37.164Z,100210.92
2022-11-02T01:02:40.631Z,100217.23
2022-11-02T01:03:43.596Z,100204.78
2022-11-02T01:04:47.896Z,100207.42
2022-11-02T01:05:51.392Z,100205.97
2022-11-02T01:06:54.677Z,100212.37
2022-11-02T01:07:56.823Z,100203.33
2022-11-02T01:09:01.589Z,100209.47
2022-11-02T01:10:07.785Z,100202.64
2022-11-02T01:11:11.947Z,100205.99
2022-11-02T01:12:20.492Z,100208.39
2022-11-02T01:13:23.928Z,100213.51
2022-11-02T01:14:27.683Z,100210.86
2022-11-02T01:15:33.843Z,100208.64
2022-11-02T01:16:39.997Z,100209.41
2022-11-02T01:17:43.424Z,100208.23
2022-11-02T01:18:50.560Z,100212.55
2022-11-02T01:19:56.169Z,100215.20
2022-11-02T01:21:04.412Z,100217.18
2022-11-02T01:22:08.410Z,100211.13
2022-11-02T01:23:14.721Z,100211.98
2022-11-02T01:24:18.097Z,100212.06
2022-11-02T01:25:22.194Z,100212.47
2022-11-02T01:26:28.208Z,100216.05
2022-11-02T01:27:35.112Z,100208.47
2022-11-02T01:28:37.804Z,100207.78
2022-11-02T01:29:41.401Z,100210.94
2022-11-02T01:30:43.968Z,100211.70
2022-11-02T01:31:50.325Z,100210.00
2022-11-02T01:32:53.516Z,100212.37
2022-11-02T01:33:57.093Z,100210.08
2022-11-02T01:35:00.274Z,100214.83
2022-11-02T01:36:04.718Z,100219.09
2022-11-02T01:37:08.451Z,100208.27
2022-11-02T01:38:12.744Z,100203.84
2022-11-02T01:39:16.603Z,100207.25
2022-11-02T01:40:19.169Z,100204.77
2022-11-02T01:41:22.568Z,100202.20
2022-11-02T01:42:27.874Z,100199.41
2022-11-02T01:43:34.162Z,100202.98
2022-11-02T01:44:37.509Z,100195.30
2022-11-02T01:45:44.096Z,100200.73
2022-11-02T01:46:48.238Z,100199.88
2022-11-02T01:47:51.745Z,100198.09
2022-11-02T01:49:00.265Z,100192.50
2022-11-02T01:50:04.802Z,100196.69
2022-11-02T01:51:13.025Z,100194.98
2022-11-02T01:52:24.034Z,100198.28
2022-11-02T01:53:27.378Z,100206.20
2022-11-02T01:54:32.193Z,100202.91
2022-11-02T01:55:34.562Z,100203.56
2022-11-02T01:56:40.789Z,100202.55
2022-11-02T01:57:44.899Z,100205.81
2022-11-02T01:58:50.190Z,100198.05
2022-11-02T01:59:54.312Z,100205.19
2022-11-02T02:00:57.482Z,100196.50
2022-11-02T02:02:03.571Z,100198.39
2022-11-02T02:03:10.048Z,100190.02
2022-11-02T02:04:14.714Z,100192.73
2022-11-02T02:05:19.159Z,100188.66
2022-11-02T02:06:22.977Z,100191.96
2022-11-02T02:07:26.999Z,100192.04
2022-11-02T02:08:29.882Z,100186.59
2022-11-02T02:09:33.601Z,100175.95
2022-11-02T02:10:37.072Z,100181.08
2022-11-02T02:11:42.301Z,100184.42
2022-11-02T02:12:46.961Z,100183.72
2022-11-02T02:13:52.449Z,100184.97
2022-11-02T02:14:55.611Z,100180.04
2022-11-02T02:16:15.620Z,100165.98
2022-11-02T02:17:29.991Z,100171.73
2022-11-02T02:18:41.638Z,100172.86
2022-11-02T02:19:57.680Z,100170.53
2022-11-02T02:21:09.539Z,100177.52
2022-11-02T02:22:32.576Z,100171.23
2022-11-02T02:23:49.136Z,100168.90
2022-11-02T02:25:11.056Z,100159.77
2022-11-02T02:26:22.249Z,100164.12
2022-11-02T02:27:45.285Z,100168.69
2022-11-02T02:28:56.490Z,100173.81
2022-11-02T02:30:07.349Z,100171.69
2022-11-02T02:31:24.629Z,100168.31
2022-11-02T02:32:39.935Z,100162.84
2022-11-02T02:33:47.733Z,100169.91
2022-11-02T02:34:56.974Z,100170.41
2022-11-02T02:36:07.800Z,100165.20
2022-11-02T02:37:14.234Z,100157.78
2022-11-02T02:38:22.225Z,100162.58
2022-11-02T02:39:31.600Z,100157.38
2022-11-02T02:40:40.612Z,100154.22
2022-11-02T02:41:45.170Z,100145.53
2022-11-02T02:42:51.428Z,100156.08
2022-11-02T02:43:56.880Z,100150.03
2022-11-02T02:45:16.909Z,100147.16
2022-11-02T02:46:21.956Z,100149.17
2022-11-02T02:47:29.439Z,100148.55
2022-11-02T02:48:37.957Z,100141.67
2022-11-02T02:49:43.120Z,100139.19
2022-11-02T02:50:50.606Z,100139.11
2022-11-02T02:51:56.510Z,100141.56
2022-11-02T02:53:04.811Z,100135.55
2022-11-02T02:54:11.133Z,100135.62
2022-11-02T02:55:16.019Z,100131.95
2022-11-02T02:56:21.288Z,100131.02
2022-11-02T02:57:26.393Z,100135.36
2022-11-02T02:58:30.584Z,100138.00
2022-11-02T02:59:36.298Z,100133.65
2022-11-02T03:00:40.011Z,100133.91
2022-11-02T03:01:45.021Z,100132.91
2022-11-02T03:02:50.880Z,100129.48
2022-11-02T03:03:55.734Z,100138.07
2022-11-02T03:05:01.986Z,100139.96
2022-11-02T03:06:09.437Z,100139.11
2022-11-02T03:07:16.912Z,100135.91
2022-11-02T03:08:22.069Z,100134.21
2022-11-02T03:09:33.846Z,100139.48
2022-11-02T03:10:45.592Z,100129.72
2022-11-02T03:11:51.090Z,100135.62
2022-11-02T03:12:55.631Z,100132.72
2022-11-02T03:14:09.903Z,100134.58
2022-11-02T03:15:27.260Z,100130.94
2022-11-02T03:16:37.376Z,100131.50
2022-11-02T03:17:45.553Z,100129.94
2022-11-02T03:18:55.770Z,100119.47
2022-11-02T03:20:06.690Z,100123.03
2022-11-02T03:21:21.384Z,100120.66
2022-11-02T03:22:34.395Z,100119.95
2022-11-02T03:23:57.941Z,100120.02
2022-11-02T03:25:16.486Z,100124.14
2022-11-02T03:26:26.676Z,100129.71
2022-11-02T03:27:31.958Z,100131.19
2022-11-02T03:28:44.000Z,100135.31
2022-11-02T03:29:52.140Z,100132.42
2022-11-02T03:31:04.434Z,100133.50
2022-11-02T03:32:09.583Z,100138.55
2022-11-02T03:33:17.787Z,100132.98
2022-11-02T03:34:23.183Z,100129.86
2022-11-02T03:35:48.310Z,100124.06
2022-11-02T03:36:57.228Z,100131.26
2022-11-02T03:38:02.898Z,100130.03
2022-11-02T03:39:09.679Z,100133.60
2022-11-02T03:40:16.107Z,100125.09
2022-11-02T03:41:21.490Z,100125.91
2022-11-02T03:42:29.289Z,100127.70
2022-11-02T03:43:34.569Z,100127.48
2022-11-02T03:44:39.741Z,100128.48
2022-11-02T03:45:45.444Z,100132.89
2022-11-02T03:46:50.412Z,100132.57
2022-11-02T03:47:57.257Z,100130.64
2022-11-02T03:49:04.629Z,100129.64
2022-11-02T03:50:06.671Z,100125.92
2022-11-02T03:51:11.620Z,100118.80
2022-11-02T03:52:16.813Z,100120.09
2022-11-02T03:53:24.916Z,100117.53
2022-11-02T03:54:36.985Z,100120.23
2022-11-02T03:55:44.666Z,100122.44
2022-11-02T03:56:50.957Z,100114.19
2022-11-02T03:57:55.027Z,100114.27
2022-11-02T03:59:00.290Z,100114.19
2022-11-02T04:00:11.680Z,100122.18
2022-11-02T04:01:18.329Z,100122.28
2022-11-02T04:02:22.343Z,100120.39
2022-11-02T04:03:28.305Z,100114.38
2022-11-02T04:04:32.184Z,100115.91
2022-11-02T04:05:36.998Z,100121.17
2022-11-02T04:06:49.045Z,100115.75
2022-11-02T04:08:12.824Z,100108.84
2022-11-02T04:09:19.421Z,100114.90
2022-11-02T04:10:22.735Z,100114.13
2022-11-02T04:11:44.552Z,100118.61
2022-11-02T04:13:07.580Z,100113.52
2022-11-02T04:14:30.106Z,100107.22
2022-11-02T04:15:33.807Z,100107.55
2022-11-02T04:16:38.775Z,100106.69
2022-11-02T04:18:02.830Z,100105.91
2022-11-02T04:19:26.206Z,100104.13
2022-11-02T04:20:29.933Z,100094.36
2022-11-02T04:21:33.844Z,100095.52
2022-11-02T04:22:56.366Z,100098.92
2022-11-02T04:24:18.140Z,100093.35
2022-11-02T04:25:22.168Z,100094.41
2022-11-02T04:26:45.216Z,100093.06
2022-11-02T04:27:51.088Z,100096.55
2022-11-02T04:28:55.036Z,100086.62
2022-11-02T04:30:00.943Z,100084.99
2022-11-02T04:31:06.024Z,100085.23
2022-11-02T04:32:14.126Z,100082.00
2022-11-02T04:33:35.799Z,100089.65
2022-11-02T04:34:43.909Z,100087.70
2022-11-02T04:35:47.715Z,100091.05
2022-11-02T04:36:52.129Z,100078.63
2022-11-02T04:38:14.177Z,100083.20
2022-11-02T04:39:16.517Z,100076.15
2022-11-02T04:40:20.129Z,100088.76
2022-11-02T04:41:41.178Z,100085.72
2022-11-02T04:42:50.617Z,100091.00
2022-11-02T04:43:58.057Z,100086.81
2022-11-02T04:45:01.298Z,100085.96
2022-11-02T04:46:04.807Z,100086.50
2022-11-02T04:47:08.929Z,100084.52
2022-11-02T04:48:12.549Z,100085.22
2022-11-02T04:49:15.834Z,100077.98
2022-11-02T04:50:19.147Z,100075.43
2022-11-02T04:51:22.950Z,100072.88
2022-11-02T04:52:26.767Z,100075.67
2022-11-02T04:53:31.081Z,100074.58
2022-11-02T04:54:34.624Z,100085.45
2022-11-02T04:55:39.893Z,100085.22
2022-11-02T04:56:44.661Z,100086.77
2022-11-02T04:57:48.167Z,100082.17
2022-11-02T04:59:01.694Z,100087.95
2022-11-02T05:00:09.085Z,100078.86
2022-11-02T05:01:14.474Z,100085.48
2022-11-02T05:02:22.599Z,100074.27
2022-11-02T05:03:26.884Z,100072.97
2022-11-02T05:04:30.966Z,100066.91
2022-11-02T05:05:34.010Z,100070.48
2022-11-02T05:06:38.587Z,100065.29
2022-11-02T05:07:41.843Z,100068.54
2022-11-02T05:08:45.255Z,100066.75
2022-11-02T05:09:48.020Z,100066.51
2022-11-02T05:10:54.763Z,100065.13
2022-11-02T05:11:58.410Z,100063.18
2022-11-02T05:13:02.107Z,100061.23
2022-11-02T05:14:07.196Z,100054.41
2022-11-02T05:15:10.557Z,100058.67
2022-11-02T05:16:14.803Z,100046.16
2022-11-02T05:17:17.557Z,100055.78
2022-11-02T05:19:25.727Z,100051.16
2022-11-02T05:20:29.554Z,100058.99
2022-11-02T05:21:33.479Z,100056.19
2022-11-02T05:22:37.191Z,100056.59
2022-11-02T05:23:40.686Z,100059.75
2022-11-02T05:24:44.098Z,100059.75
2022-11-02T05:26:00.658Z,100064.34
2022-11-02T05:27:04.893Z,100065.03
2022-11-02T05:28:09.932Z,100053.27
2022-11-02T05:29:13.402Z,100063.76
2022-11-02T05:30:17.669Z,100048.84
2022-11-02T05:31:21.211Z,100047.70
2022-11-02T05:32:24.183Z,100060.77
2022-11-02T05:33:30.878Z,100057.11
2022-11-02T05:34:35.932Z,100052.50
2022-11-02T05:35:39.693Z,100050.12
2022-11-02T05:36:43.438Z,100051.14
2022-11-02T05:37:46.931Z,100052.16
2022-11-02T05:38:52.003Z,100060.94
2022-11-02T05:39:56.560Z,100058.49
2022-11-02T05:41:00.409Z,100061.02
2022-11-02T05:42:04.605Z,100053.38
2022-11-02T05:43:09.676Z,100056.36
2022-11-02T05:44:16.107Z,100060.45
2022-11-02T05:45:23.686Z,100059.85
2022-11-02T05:46:25.433Z,100066.84
2022-11-02T05:47:29.040Z,100068.55
2022-11-02T05:48:33.877Z,100064.97
2022-11-02T05:49:39.575Z,100065.91
2022-11-02T05:50:43.205Z,100068.47
2022-11-02T05:51:46.718Z,100064.97
2022-11-02T05:52:50.112Z,100067.69
2022-11-02T05:53:55.867Z,100060.45
2022-11-02T05:55:02.446Z,100069.15
2022-11-02T05:56:07.416Z,100069.55
2022-11-02T05:57:10.806Z,100063.17
2022-11-02T05:58:14.322Z,100066.15
2022-11-02T05:59:17.681Z,100057.90
2022-11-02T06:00:21.017Z,100058.31
2022-11-02T06:01:25.246Z,100053.55
2022-11-02T06:02:28.472Z,100049.43
2022-11-02T06:03:31.541Z,100051.73
2022-11-02T06:04:35.246Z,100057.62
2022-11-02T06:05:38.576Z,100059.83
2022-11-02T06:06:42.872Z,100063.66
2022-11-02T06:07:48.163Z,100073.58
2022-11-02T06:08:51.671Z,100072.19
2022-11-02T06:09:53.911Z,100063.47
2022-11-02T06:10:59.411Z,100057.76
2022-11-02T06:12:03.776Z,100060.45
2022-11-02T06:13:07.169Z,100061.77
2022-11-02T06:14:11.156Z,100066.80
2022-11-02T06:15:14.687Z,100056.91
2022-11-02T06:16:22.912Z,100066.72
2022-11-02T06:17:26.580Z,100064.19
2022-11-02T06:18:30.002Z,100062.90
2022-11-02T06:19:33.297Z,100058.46
2022-11-02T06:20:36.172Z,100076.73
2022-11-02T06:21:42.010Z,100071.27
2022-11-02T06:22:47.052Z,100069.16
2022-11-02T06:23:51.593Z,100064.89
2022-11-02T06:24:56.775Z,100070.47
2022-11-02T06:26:01.324Z,100083.38
2022-11-02T06:27:04.506Z,100072.42
2022-11-02T06:28:07.394Z,100080.37
2022-11-02T06:29:09.926Z,100086.12
2022-11-02T06:30:14.603Z,100083.56
2022-11-02T06:31:19.632Z,100079.52
2022-11-02T06:32:24.548Z,100081.95
2022-11-02T06:33:28.056Z,100076.31
2022-11-02T06:34:30.304Z,100086.24
2022-11-02T06:35:34.438Z,100082.42
2022-11-02T06:36:39.092Z,100078.34
2022-11-02T06:37:42.595Z,100090.54
2022-11-02T06:38:46.925Z,100082.95
2022-11-02T06:39:51.310Z,100082.72
2022-11-02T06:40:54.878Z,100095.45
2022-11-02T06:41:58.486Z,100093.83
2022-11-02T06:43:15.867Z,100091.41
2022-11-02T06:44:06.851Z,100097.97
2022-11-02T06:45:10.681Z,100095.66
2022-11-02T06:46:13.140Z,100096.46
2022-11-02T06:47:19.294Z,100093.06
2022-11-02T06:48:23.505Z,100100.19
2022-11-02T06:49:27.316Z,100090.48
2022-11-02T06:50:30.492Z,100089.00
2022-11-02T06:51:35.052Z,100106.07
2022-11-02T06:52:40.543Z,100096.86
2022-11-02T06:53:43.933Z,100093.70
2022-11-02T06:54:47.027Z,100084.56
2022-11-02T06:55:56.280Z,100089.66
2022-11-02T06:56:59.669Z,100096.50
2022-11-02T06:58:03.185Z,100094.67
2022-11-02T06:59:06.586Z,100096.55
2022-11-02T07:00:15.449Z,100099.88
2022-11-02T07:01:19.387Z,100109.69
2022-11-02T07:02:22.983Z,100123.86
2022-11-02T07:03:26.665Z,100126.63
2022-11-02T07:04:30.275Z,100143.13
2022-11-02T07:05:34.299Z,100140.89
2022-11-02T07:06:37.794Z,100144.35
2022-11-02T07:07:41.134Z,100153.29
2022-11-02T07:08:44.710Z,100163.52
2022-11-02T07:09:47.892Z,100157.60
2022-11-02T07:10:51.053Z,100151.70
2022-11-02T07:11:55.162Z,100153.64
2022-11-02T07:12:58.659Z,100156.79
2022-11-02T07:14:03.002Z,100164.34
2022-11-02T07:15:10.046Z,100169.80
2022-11-02T07:16:13.309Z,100163.00
2022-11-02T07:17:19.020Z,100164.66
2022-11-02T07:18:23.465Z,100172.17
2022-11-02T07:19:25.923Z,100181.60
2022-11-02T07:20:29.940Z,100171.92
2022-11-02T07:21:33.239Z,100183.28
2022-11-02T07:22:36.218Z,100173.62
2022-11-02T07:23:41.206Z,100178.34
2022-11-02T07:24:44.010Z,100179.86
2022-11-02T07:25:47.569Z,100178.66
2022-11-02T07:26:52.858Z,100184.97
2022-11-02T07:27:56.364Z,100188.16
2022-11-02T07:28:59.765Z,100184.09
2022-11-02T07:30:04.775Z,100181.83
2022-11-02T07:31:08.487Z,100186.58
2022-11-02T07:32:12.860Z,100190.59
2022-11-02T07:33:16.270Z,100183.56
2022-11-02T07:34:19.691Z,100182.45
2022-11-02T07:35:23.073Z,100186.41
2022-11-02T07:36:26.493Z,100190.77
2022-11-02T07:37:29.151Z,100181.81
2022-11-02T07:38:32.771Z,100194.84
2022-11-02T07:39:36.278Z,100186.29
2022-11-02T07:40:41.663Z,100185.45
2022-11-02T07:41:50.830Z,100192.55
2022-11-02T07:42:50.765Z,100184.39
2022-11-02T07:43:56.068Z,100189.05
2022-11-02T07:45:04.983Z,100179.72
2022-11-02T07:46:08.482Z,100187.51
2022-11-02T07:47:11.883Z,100182.56
2022-11-02T07:48:15.167Z,100183.94
2022-11-02T07:49:21.273Z,100181.77
2022-11-02T07:50:22.806Z,100174.48
2022-11-02T07:51:25.996Z,100179.72
2022-11-02T07:52:29.084Z,100175.44
2022-11-02T07:53:33.632Z,100166.28
2022-11-02T07:54:37.679Z,100176.95
2022-11-02T07:55:39.913Z,100170.02
2022-11-02T07:57:57.273Z,100168.12
2022-11-02T07:59:03.630Z,100168.42
2022-11-02T08:00:07.719Z,100160.57
2022-11-02T08:01:11.952Z,100167.20
2022-11-02T08:02:15.420Z,100171.80
2022-11-02T08:03:18.812Z,100161.33
2022-11-02T08:05:26.183Z,100159.78
2022-11-02T08:06:29.491Z,100163.78
2022-11-02T08:07:33.623Z,100156.09
2022-11-02T08:08:37.118Z,100160.44
2022-11-02T08:09:40.727Z,100163.51
2022-11-02T08:10:46.789Z,100165.11
2022-11-02T08:11:50.156Z,100159.76
2022-11-02T08:12:53.136Z,100160.80
2022-11-02T08:13:56.565Z,100166.31
2022-11-02T08:15:03.498Z,100168.10
2022-11-02T08:16:06.195Z,100164.70
2022-11-02T08:17:09.560Z,100165.63
2022-11-02T08:18:14.520Z,100167.22
2022-11-02T08:19:18.862Z,100162.94
2022-11-02T08:20:22.987Z,100161.75
2022-11-02T08:21:27.960Z,100168.10
2022-11-02T08:22:31.250Z,100155.90
2022-11-02T08:23:33.809Z,100169.05
2022-11-02T08:24:37.326Z,100159.46
2022-11-02T08:25:41.304Z,100160.92
2022-11-02T08:26:45.966Z,100162.10
2022-11-02T08:27:48.885Z,100160.75
2022-11-02T08:28:52.394Z,100163.19
2022-11-02T08:29:55.926Z,100165.25
2022-11-02T08:30:59.702Z,100160.19
2022-11-02T08:32:03.880Z,100158.88
2022-11-02T08:33:10.224Z,100165.97
2022-11-02T08:34:13.451Z,100169.16
2022-11-02T08:35:16.903Z,100171.92
2022-11-02T08:36:22.568Z,100166.09
2022-11-02T08:37:25.745Z,100158.67
2022-11-02T08:38:29.280Z,100161.41
2022-11-02T08:39:32.768Z,100160.95
2022-11-02T08:40:35.532Z,100151.73
2022-11-02T08:41:37.792Z,100160.84
2022-11-02T08:42:41.090Z,100155.77
2022-11-02T08:43:44.699Z,100154.45
2022-11-02T08:44:48.726Z,100150.17
2022-11-02T08:46:13.855Z,100160.47
2022-11-02T08:46:56.897Z,100148.10
2022-11-02T08:48:02.263Z,100149.02
2022-11-02T08:49:05.553Z,100157.93
2022-11-02T08:50:08.547Z,100148.03
2022-11-02T08:51:12.042Z,100147.61
2022-11-02T08:52:17.646Z,100137.60
2022-11-02T08:53:20.200Z,100134.30
2022-11-02T08:54:23.392Z,100132.73
2022-11-02T08:55:27.105Z,100133.16
2022-11-02T08:56:30.729Z,100131.61
2022-11-02T08:57:32.979Z,100128.80
2022-11-02T08:58:36.160Z,100122.44
2022-11-02T08:59:38.345Z,100122.81
2022-11-02T09:00:41.611Z,100126.06
2022-11-02T09:01:45.277Z,100120.75
2022-11-02T09:04:14.050Z,100107.91
2022-11-02T09:05:16.940Z,100120.19
2022-11-02T09:06:20.233Z,100118.91
2022-11-02T09:07:23.635Z,100113.55
2022-11-02T09:08:28.710Z,100110.16
2022-11-02T09:09:34.407Z,100119.23
2022-11-02T09:10:39.258Z,100111.94
2022-11-02T09:11:44.657Z,100117.03
2022-11-02T09:12:49.099Z,100119.84
2022-11-02T09:13:56.684Z,100111.80
2022-11-02T09:14:56.517Z,100110.12
2022-11-02T09:16:00.280Z,100113.84
2022-11-02T09:17:03.676Z,100115.67
2022-11-02T09:18:06.831Z,100107.77
2022-11-02T09:19:10.861Z,100111.29
2022-11-02T09:20:14.678Z,100109.83
2022-11-02T09:21:19.125Z,100113.41
2022-11-02T09:22:23.456Z,100115.42
2022-11-02T09:23:26.691Z,100113.27
2022-11-02T09:24:31.204Z,100103.67
2022-11-02T09:25:34.804Z,100110.58
2022-11-02T09:26:38.583Z,100107.72
2022-11-02T09:27:42.591Z,100103.52
2022-11-02T09:28:46.036Z,100098.88
2022-11-02T09:29:49.665Z,100102.47
2022-11-02T09:30:53.165Z,100101.75
2022-11-02T09:31:56.355Z,100099.64
2022-11-02T09:33:05.834Z,100092.58
2022-11-02T09:34:09.632Z,100106.57
2022-11-02T09:35:13.149Z,100092.31
2022-11-02T09:36:17.386Z,100101.05
2022-11-02T09:37:20.785Z,100083.82
2022-11-02T09:38:24.708Z,100088.08
2022-11-02T09:39:27.201Z,100092.48
2022-11-02T09:40:38.289Z,100089.52
2022-11-02T09:41:45.145Z,100086.11
2022-11-02T09:42:54.820Z,100086.83
2022-11-02T09:44:02.948Z,100085.29
2022-11-02T09:45:07.917Z,100079.64
2022-11-02T09:46:14.089Z,100090.36
2022-11-02T09:48:03.131Z,100080.07
2022-11-02T09:48:28.550Z,100077.80
2022-11-02T09:49:31.760Z,100079.06
2022-11-02T09:50:42.218Z,100081.16
2022-11-02T09:51:48.855Z,100070.31
2022-11-02T09:52:57.303Z,100079.62
2022-11-02T09:54:05.175Z,100082.85
2022-11-02T09:55:14.157Z,100077.63
2022-11-02T09:56:21.353Z,100086.68
2022-11-02T09:57:32.068Z,100080.49
2022-11-02T09:58:36.630Z,100081.20
2022-11-02T09:59:40.331Z,100089.22
2022-11-02T10:00:49.035Z,100080.49
2022-11-02T10:01:57.368Z,100083.02
2022-11-02T10:03:01.870Z,100084.83
2022-11-02T10:04:13.070Z,100083.88
2022-11-02T10:05:18.537Z,100076.55
2022-11-02T10:06:22.679Z,100075.97
2022-11-02T10:07:38.740Z,100083.44
2022-11-02T10:08:44.972Z,100083.41
2022-11-02T10:09:50.636Z,100081.88
2022-11-02T10:10:58.739Z,100077.09
2022-11-02T10:12:04.226Z,100069.20
2022-11-02T10:13:15.669Z,100065.70
2022-11-02T10:14:21.253Z,100072.75
2022-11-02T10:15:29.354Z,100079.58
2022-11-02T10:16:33.489Z,100081.17
2022-11-02T10:17:39.293Z,100076.66
2022-11-02T10:18:42.689Z,100065.55
2022-11-02T10:19:49.015Z,100081.17
2022-11-02T10:20:53.980Z,100079.58
2022-11-02T10:21:58.959Z,100076.26
2022-11-02T10:23:04.497Z,100075.11
2022-11-02T10:24:23.313Z,100068.94
2022-11-02T10:25:28.263Z,100067.81
2022-11-02T10:26:36.710Z,100076.26
2022-11-02T10:27:40.907Z,100064.70
2022-11-02T10:28:45.266Z,100076.22
2022-11-02T10:30:04.751Z,100080.05
2022-11-02T10:32:27.730Z,100071.45
2022-11-02T17:40:20.242Z,100200.23
2022-11-02T17:41:47.755Z,100199.28
2022-11-02T17:43:00.456Z,100205.55
2022-11-02T17:44:04.498Z,100203.00
2022-11-02T17:45:29.933Z,100210.16
2022-11-02T17:46:32.916Z,100205.80
2022-11-02T17:47:36.058Z,100203.25
2022-11-02T17:48:39.221Z,100207.61
2022-11-02T17:49:41.550Z,100200.70
2022-11-02T17:50:44.313Z,100203.36
2022-11-02T17:51:49.747Z,100202.61
2022-11-02T17:52:54.052Z,100199.73
2022-11-02T17:53:56.405Z,100205.16
2022-11-02T17:54:59.694Z,100201.34
2022-11-02T17:56:03.206Z,100197.58
2022-11-02T17:57:18.708Z,100198.00
2022-11-02T17:58:22.232Z,100202.89
2022-11-02T17:59:25.903Z,100206.41
2022-11-02T18:00:29.541Z,100199.06
2022-11-02T18:01:34.941Z,100202.36
2022-11-02T18:02:40.901Z,100202.14
2022-11-02T18:03:45.393Z,100208.64
2022-11-02T18:04:49.934Z,100198.95
2022-11-02T18:05:55.809Z,100200.02
2022-11-02T18:06:59.379Z,100200.77
2022-11-02T18:08:04.970Z,100196.08
2022-11-02T18:09:11.667Z,100197.45
2022-11-02T18:10:15.082Z,100202.88
2022-11-02T18:11:22.100Z,100205.22
2022-11-02T18:12:25.151Z,100203.30
2022-11-02T18:13:31.504Z,100202.34
2022-11-02T18:14:39.651Z,100199.90
2022-11-02T18:15:43.469Z,100203.52
2022-11-02T18:16:46.393Z,100210.02
2022-11-02T18:17:50.493Z,100202.14
2022-11-02T18:18:53.566Z,100206.50
2022-11-02T18:19:55.830Z,100199.38
2022-11-02T18:20:59.334Z,100196.71
2022-11-02T18:22:02.649Z,100208.31
2022-11-02T18:23:05.748Z,100204.17
2022-11-02T18:24:10.669Z,100205.77
2022-11-02T18:26:22.498Z,100206.61
2022-11-02T18:27:28.758Z,100200.12
2022-11-02T18:28:32.318Z,100198.62
2022-11-02T18:29:35.411Z,100208.95
2022-11-02T18:30:39.851Z,100203.52
2022-11-02T18:31:43.042Z,100205.33
2022-11-02T18:32:46.972Z,100204.38
2022-11-02T18:33:53.012Z,100203.63
2022-11-02T18:34:55.751Z,100208.20
2022-11-02T18:36:12.356Z,100200.22
2022-11-02T18:37:17.696Z,100200.01
2022-11-02T18:38:21.421Z,100194.91
2022-11-02T18:39:24.821Z,100205.44
2022-11-02T18:40:30.222Z,100195.79
2022-11-02T18:41:34.843Z,100197.34
2022-11-02T18:42:39.873Z,100196.30
2022-11-02T18:43:43.154Z,100196.41
2022-11-02T18:44:45.894Z,100193.67
2022-11-02T18:45:49.194Z,100196.97
2022-11-02T18:46:52.598Z,100200.23
2022-11-02T18:47:56.197Z,100191.94
2022-11-02T18:49:00.127Z,100202.99
2022-11-02T18:50:02.575Z,100203.77
2022-11-02T18:51:05.466Z,100204.62
2022-11-02T18:52:09.800Z,100194.05
2022-11-02T18:53:13.194Z,100203.84
2022-11-02T18:54:17.326Z,100205.77
2022-11-02T18:55:21.990Z,100200.55
2022-11-02T18:56:25.497Z,100208.95
2022-11-02T18:57:29.040Z,100198.73
2022-11-02T18:58:32.149Z,100203.42
2022-11-02T18:59:36.940Z,100210.88
2022-11-02T19:00:39.356Z,100211.52
2022-11-02T19:01:44.913Z,100209.81
2022-11-02T19:02:47.257Z,100209.38
2022-11-02T19:03:51.910Z,100224.38
2022-11-02T19:04:54.150Z,100219.28
2022-11-02T19:06:16.771Z,100224.27
2022-11-02T19:07:38.878Z,100221.29
2022-11-02T19:09:01.547Z,100225.66
2022-11-02T19:10:07.477Z,100230.77
2022-11-02T19:11:10.795Z,100219.91
2022-11-02T19:12:15.355Z,100231.62
2022-11-02T19:13:20.965Z,100229.28
2022-11-02T19:14:23.920Z,100236.30
2022-11-02T19:15:29.003Z,100230.13
2022-11-02T19:16:32.288Z,100234.39
2022-11-02T19:17:37.056Z,100237.27
2022-11-02T19:18:40.068Z,100226.97
2022-11-02T19:19:46.676Z,100225.80
2022-11-02T19:20:50.895Z,100236.34
2022-11-02T19:21:54.618Z,100234.20
2022-11-02T19:22:57.810Z,100230.59
2022-11-02T19:24:04.238Z,100235.77
2022-11-02T19:25:08.009Z,100232.05
2022-11-02T19:26:11.314Z,100235.34
2022-11-02T19:27:16.019Z,100236.20
2022-11-02T19:28:18.362Z,100233.64
2022-11-02T19:29:22.529Z,100229.84
2022-11-02T19:30:27.890Z,100229.84
2022-11-02T19:31:30.254Z,100240.77
2022-11-02T19:32:32.499Z,100234.42
2022-11-02T19:33:36.003Z,100233.14
2022-11-02T19:34:39.404Z,100229.87
